KABI/ABI METAR and TAF weather

Enter ICAO airport designator
Station Type Date Time Source
KABI METAR 2019/02/21 11:52 UTC NOAA

KABI 211152Z 15012KT 10SM CLR 08/M01 A2989 RMK AO2 SLP116 T00781006 10094 20061 55000


Station Type Date Time Source
KABI Decoded METAR 2019/02/21 11:52 UTC NOAA

ABILENE REGIONAL AIRPORT, TX, United States (KABI) 32-25N 099-41W 548M
Feb 21, 2019 - 06:52 AM EST / 2019.02.21 1152 UTC
Wind: from the SSE (150 degrees) at 14 MPH (12 KT):0
Visibility: 10 mile(s):0
Sky conditions: clear
Temperature: 46.0 F (7.8 C)
Dew Point: 30.9 F (-0.6 C)
Relative Humidity: 55%
Pressure (altimeter): 29.89 in. Hg (1012 hPa)
Pressure tendency: 0.00 inches (0.0 hPa) lower than three hours ago
ob: KABI 211152Z 15012KT 10SM CLR 08/M01 A2989 RMK AO2 SLP116 T00781006 10094 20061 55000
cycle: 12

Station Type Date Time Source
KABI TAF 2019/02/21 12:22 UTC NOAA

TAF KABI 211120Z 2112/2212 15010KT P6SM BKN250
FM211600 16014G20KT P6SM BKN250
FM220000 14010KT P6SM SCT250
FM220800 13009KT 5SM BR OVC012


Example: see airport list